createdAt,value
2022-12-08T00:00:19.139Z,0.50
2022-12-08T00:02:48.716Z,0.70
2022-12-08T00:05:36.368Z,0.50
2022-12-08T00:08:16.425Z,0.30
2022-12-08T00:10:49.317Z,0.50
2022-12-08T00:13:17.758Z,0.57
2022-12-08T00:15:47.201Z,0.50
2022-12-08T00:18:16.706Z,0.50
2022-12-08T00:20:46.180Z,0.60
2022-12-08T00:23:15.612Z,0.53
2022-12-08T00:25:45.069Z,0.37
2022-12-08T00:28:14.490Z,0.60
2022-12-08T00:30:45.352Z,0.60
2022-12-08T00:33:14.789Z,0.40
2022-12-08T00:35:44.636Z,0.43
2022-12-08T00:38:14.377Z,0.40
2022-12-08T00:40:48.625Z,0.50
2022-12-08T00:43:18.051Z,0.60
2022-12-08T00:45:47.603Z,0.70
2022-12-08T00:48:17.074Z,0.60
2022-12-08T00:50:46.597Z,0.87
2022-12-08T00:53:16.044Z,0.50
2022-12-08T00:55:45.755Z,0.83
2022-12-08T00:58:21.402Z,0.50
2022-12-08T01:00:50.927Z,1.00
2022-12-08T01:03:20.445Z,0.87
2022-12-08T01:05:49.920Z,0.90
2022-12-08T01:08:19.411Z,0.90
2022-12-08T01:10:48.943Z,0.60
2022-12-08T01:13:18.372Z,0.77
2022-12-08T01:15:47.826Z,1.10
2022-12-08T01:18:17.251Z,0.80
2022-12-08T01:20:46.714Z,0.93
2022-12-08T01:23:16.155Z,1.20
2022-12-08T01:25:45.711Z,1.00
2022-12-08T01:28:15.140Z,0.90
2022-12-08T01:30:44.635Z,1.03
2022-12-08T01:33:14.113Z,0.80
2022-12-08T01:35:43.559Z,0.87
2022-12-08T01:38:12.995Z,1.43
2022-12-08T01:40:42.442Z,1.20
2022-12-08T01:43:19.261Z,1.70
2022-12-08T01:45:49.633Z,1.63
2022-12-08T01:48:23.778Z,1.63
2022-12-08T01:50:56.515Z,1.30
2022-12-08T01:53:33.246Z,1.13
2022-12-08T01:56:07.327Z,0.87
2022-12-08T01:58:47.344Z,1.13
2022-12-08T02:01:17.303Z,0.70
2022-12-08T02:03:59.909Z,1.00
2022-12-08T02:06:34.125Z,0.70
2022-12-08T02:09:06.476Z,0.70
2022-12-08T02:11:36.172Z,0.80
2022-12-08T02:14:09.232Z,1.00
2022-12-08T02:16:55.435Z,1.10
2022-12-08T02:19:50.758Z,0.87
2022-12-08T02:22:47.404Z,0.80
2022-12-08T02:25:59.433Z,0.80
2022-12-08T02:28:54.360Z,0.63
2022-12-08T02:31:55.294Z,0.90
2022-12-08T02:34:35.203Z,0.67
2022-12-08T02:37:25.763Z,1.20
2022-12-08T02:40:14.752Z,1.00
2022-12-08T02:42:57.919Z,0.83
2022-12-08T02:45:41.113Z,0.60
2022-12-08T02:48:11.983Z,0.70
2022-12-08T02:50:41.450Z,0.70
2022-12-08T02:55:56.030Z,0.63
2022-12-08T02:58:35.360Z,0.97
2022-12-08T03:01:27.357Z,0.90
2022-12-08T03:04:04.339Z,0.97
2022-12-08T03:07:02.208Z,0.80
2022-12-08T03:10:03.204Z,0.70
2022-12-08T03:12:57.178Z,0.80
2022-12-08T03:15:26.726Z,0.67
2022-12-08T03:18:00.792Z,1.10
2022-12-08T03:20:34.132Z,0.70
2022-12-08T03:23:07.999Z,0.70
2022-12-08T03:25:41.935Z,0.50
2022-12-08T03:28:12.979Z,0.60
2022-12-08T03:30:46.906Z,0.43
2022-12-08T03:33:26.342Z,0.40
2022-12-08T03:35:58.203Z,0.43
2022-12-08T03:38:27.712Z,0.90
2022-12-08T03:41:14.931Z,0.70
2022-12-08T03:43:44.364Z,0.70
2022-12-08T03:46:14.031Z,0.67
2022-12-08T03:48:43.847Z,0.60
2022-12-08T03:51:13.923Z,0.50
2022-12-08T03:53:43.797Z,0.43
2022-12-08T03:56:28.922Z,0.30
2022-12-08T03:58:58.541Z,0.50
2022-12-08T04:01:28.884Z,0.40
2022-12-08T04:03:58.833Z,0.70
2022-12-08T04:06:28.564Z,0.70
2022-12-08T04:08:57.992Z,1.00
2022-12-08T04:11:27.730Z,0.70
2022-12-08T04:13:57.162Z,0.67
2022-12-08T04:16:28.495Z,0.80
2022-12-08T04:18:58.122Z,1.10
2022-12-08T04:21:27.581Z,0.80
2022-12-08T04:24:00.995Z,1.00
2022-12-08T04:26:28.199Z,1.10
2022-12-08T04:28:57.642Z,1.07
2022-12-08T04:31:27.272Z,0.97
2022-12-08T04:33:56.742Z,0.63
2022-12-08T04:36:26.212Z,0.80
2022-12-08T04:38:55.702Z,0.70
2022-12-08T04:41:25.161Z,0.90
2022-12-08T04:43:54.596Z,1.00
2022-12-08T04:46:24.423Z,0.80
2022-12-08T04:48:53.845Z,0.93
2022-12-08T04:51:23.753Z,0.80
2022-12-08T04:53:53.163Z,1.43
2022-12-08T04:56:22.621Z,1.40
2022-12-08T04:58:52.053Z,1.60
2022-12-08T05:01:21.580Z,1.20
2022-12-08T05:03:51.019Z,1.10
2022-12-08T05:06:20.494Z,1.20
2022-12-08T05:08:49.927Z,1.03
2022-12-08T05:11:19.706Z,1.67
2022-12-08T05:13:49.316Z,1.30
2022-12-08T05:16:18.862Z,1.13
2022-12-08T05:18:48.294Z,1.07
2022-12-08T05:21:17.751Z,1.00
2022-12-08T05:23:47.203Z,1.07
2022-12-08T05:26:16.720Z,1.10
2022-12-08T05:28:46.159Z,1.00
2022-12-08T05:31:17.891Z,0.93
2022-12-08T05:33:47.961Z,1.90
2022-12-08T05:36:19.078Z,1.20
2022-12-08T05:38:49.089Z,0.93
2022-12-08T05:41:21.732Z,1.00
2022-12-08T05:43:51.542Z,1.13
2022-12-08T05:46:21.484Z,1.10
2022-12-08T05:48:50.968Z,0.90
2022-12-08T05:51:24.568Z,1.20
2022-12-08T05:53:55.642Z,1.17
2022-12-08T05:56:25.818Z,1.20
2022-12-08T05:58:55.282Z,1.30
2022-12-08T06:01:29.338Z,1.10
2022-12-08T06:04:02.203Z,1.03
2022-12-08T06:06:32.705Z,1.20
2022-12-08T06:09:04.883Z,0.90
2022-12-08T06:11:35.086Z,1.00
2022-12-08T06:14:04.811Z,1.07
2022-12-08T06:16:34.298Z,1.20
2022-12-08T06:19:03.775Z,1.00
2022-12-08T06:21:33.203Z,0.90
2022-12-08T06:24:02.721Z,1.23
2022-12-08T06:26:32.169Z,0.90
2022-12-08T06:29:01.591Z,1.20
2022-12-08T06:31:31.179Z,0.90
2022-12-08T06:34:00.649Z,1.10
2022-12-08T06:36:30.352Z,1.00
2022-12-08T06:38:59.971Z,1.00
2022-12-08T06:41:29.466Z,1.13
2022-12-08T06:43:59.909Z,1.30
2022-12-08T06:46:29.382Z,1.23
2022-12-08T06:48:59.940Z,1.30
2022-12-08T06:51:29.593Z,0.93
2022-12-08T06:53:59.204Z,1.30
2022-12-08T06:56:30.041Z,1.10
2022-12-08T06:58:59.464Z,1.40
2022-12-08T07:01:29.039Z,1.20
2022-12-08T07:03:58.521Z,1.77
2022-12-08T07:06:28.029Z,1.30
2022-12-08T07:08:57.467Z,1.73
2022-12-08T07:11:27.199Z,2.30
2022-12-08T07:13:59.057Z,2.20
2022-12-08T07:16:28.661Z,1.50
2022-12-08T07:18:58.086Z,1.50
2022-12-08T07:21:27.537Z,1.33
2022-12-08T07:23:58.047Z,1.87
2022-12-08T07:26:27.621Z,1.70
2022-12-08T07:28:57.052Z,1.53
2022-12-08T07:31:28.922Z,1.07
2022-12-08T07:33:59.017Z,1.10
2022-12-08T07:36:29.235Z,1.00
2022-12-08T07:38:58.675Z,1.73
2022-12-08T07:41:28.600Z,1.23
2022-12-08T07:43:58.455Z,1.60
2022-12-08T07:46:29.117Z,1.07
2022-12-08T07:48:58.929Z,0.90
2022-12-08T07:51:28.537Z,1.00
2022-12-08T07:53:57.975Z,1.10
2022-12-08T07:56:27.412Z,1.30
2022-12-08T07:58:56.856Z,0.83
2022-12-08T08:01:30.465Z,1.20
2022-12-08T08:04:04.422Z,1.27
2022-12-08T08:06:37.849Z,1.63
2022-12-08T08:09:07.268Z,1.90
2022-12-08T08:11:36.792Z,1.20
2022-12-08T08:14:06.239Z,1.57
2022-12-08T08:16:38.543Z,2.20
2022-12-08T08:19:06.842Z,1.70
2022-12-08T08:21:45.623Z,1.40
2022-12-08T08:24:07.690Z,1.10
2022-12-08T08:26:39.480Z,1.23
2022-12-08T08:29:08.909Z,1.90
2022-12-08T08:31:38.446Z,1.97
2022-12-08T08:34:09.042Z,1.80
2022-12-08T08:36:39.630Z,1.67
2022-12-08T08:39:09.096Z,1.37
2022-12-08T08:41:38.550Z,1.50
2022-12-08T08:44:07.975Z,2.10
2022-12-08T08:46:37.521Z,1.73
2022-12-08T08:49:07.074Z,1.43
2022-12-08T08:51:36.593Z,2.07
2022-12-08T08:54:06.091Z,2.20
2022-12-08T08:56:35.659Z,1.70
2022-12-08T08:59:05.169Z,2.00
2022-12-08T09:01:35.509Z,1.63
2022-12-08T09:04:05.027Z,1.50
2022-12-08T09:06:34.526Z,2.20
2022-12-08T09:09:04.463Z,1.60
2022-12-08T09:11:34.638Z,1.70
2022-12-08T09:14:04.361Z,1.53
2022-12-08T09:16:38.923Z,1.40
2022-12-08T09:19:05.032Z,1.70
2022-12-08T09:21:34.477Z,2.50
2022-12-08T09:24:03.920Z,1.90
2022-12-08T09:26:33.366Z,2.30
2022-12-08T09:29:02.825Z,1.97
2022-12-08T09:31:32.303Z,2.07
2022-12-08T09:34:01.786Z,2.00
2022-12-08T09:36:31.300Z,2.17
2022-12-08T09:39:00.807Z,2.10
2022-12-08T09:41:40.324Z,2.27
2022-12-08T09:44:28.384Z,1.73
2022-12-08T09:46:59.716Z,1.67
2022-12-08T09:49:39.307Z,1.70
2022-12-08T09:52:16.383Z,2.23
2022-12-08T09:54:45.991Z,2.73
2022-12-08T09:57:20.063Z,2.20
2022-12-08T09:59:54.110Z,1.90
2022-12-08T10:02:27.330Z,2.13
2022-12-08T10:04:59.454Z,2.97
2022-12-08T10:07:52.103Z,1.83
2022-12-08T10:10:47.528Z,1.93
2022-12-08T10:13:27.235Z,2.00
2022-12-08T10:16:29.749Z,1.40
2022-12-08T10:19:23.261Z,1.23
2022-12-08T10:21:55.187Z,1.67
2022-12-08T10:24:37.462Z,1.50
2022-12-08T10:27:11.532Z,1.80
2022-12-08T10:29:42.604Z,2.20
2022-12-08T10:32:16.687Z,1.90
2022-12-08T10:35:08.712Z,1.83
2022-12-08T10:37:39.038Z,3.17
2022-12-08T10:40:15.773Z,2.93
2022-12-08T10:42:58.279Z,2.40
2022-12-08T10:45:41.770Z,2.07
2022-12-08T10:48:31.997Z,1.73
2022-12-08T10:51:03.707Z,2.40
2022-12-08T10:53:36.762Z,2.00
2022-12-08T10:56:10.808Z,1.80
2022-12-08T10:58:46.440Z,2.03
2022-12-08T11:01:35.977Z,2.20
2022-12-08T11:04:21.197Z,1.57
2022-12-08T11:06:52.901Z,2.03
2022-12-08T11:09:27.363Z,2.03
2022-12-08T11:12:00.839Z,1.57
2022-12-08T11:14:33.700Z,1.80
2022-12-08T11:17:19.402Z,1.70
2022-12-08T11:20:06.761Z,1.43
2022-12-08T11:22:46.482Z,1.70
2022-12-08T11:25:28.111Z,1.57
2022-12-08T11:28:03.025Z,1.93
2022-12-08T11:30:45.795Z,1.60
2022-12-08T11:33:22.532Z,1.50
2022-12-08T11:35:59.448Z,1.50
2022-12-08T11:38:30.811Z,1.33
2022-12-08T11:41:17.056Z,1.60
2022-12-08T11:44:28.689Z,1.43
2022-12-08T11:47:26.672Z,1.40
2022-12-08T11:50:07.030Z,1.83
2022-12-08T11:52:46.682Z,2.30
2022-12-08T11:55:41.652Z,1.90
2022-12-08T11:58:21.170Z,1.63
2022-12-08T12:00:51.524Z,1.60
2022-12-08T12:03:46.902Z,2.17
2022-12-08T12:07:00.354Z,1.50
2022-12-08T12:09:26.802Z,1.33
2022-12-08T12:12:21.938Z,1.60
2022-12-08T12:15:01.944Z,2.00
2022-12-08T12:18:02.422Z,1.80
2022-12-08T12:20:54.752Z,2.10
2022-12-08T12:23:34.697Z,1.50
2022-12-08T12:26:08.203Z,1.60
2022-12-08T12:28:49.677Z,1.50
2022-12-08T12:31:26.020Z,1.20
2022-12-08T12:34:00.077Z,1.63
2022-12-08T12:36:29.580Z,1.27
2022-12-08T12:39:04.099Z,1.60
2022-12-08T12:41:40.914Z,1.40
2022-12-08T12:44:14.960Z,1.20
2022-12-08T12:46:52.981Z,1.40
2022-12-08T12:49:45.948Z,1.20
2022-12-08T12:52:22.992Z,1.10
2022-12-08T12:54:59.822Z,1.13
2022-12-08T12:57:36.544Z,2.40
2022-12-08T13:00:14.586Z,1.95
2022-12-08T13:02:50.103Z,1.80
2022-12-08T13:05:29.672Z,1.70
2022-12-08T13:08:03.649Z,1.40
2022-12-08T13:10:43.381Z,1.10
2022-12-08T13:13:17.502Z,1.20
2022-12-08T13:15:54.812Z,0.80
2022-12-08T13:18:31.540Z,1.07
2022-12-08T13:21:08.107Z,1.20
2022-12-08T13:24:10.539Z,1.20
2022-12-08T13:26:49.059Z,1.40
2022-12-08T13:29:27.503Z,1.40
2022-12-08T13:32:02.628Z,1.30
2022-12-08T13:34:54.479Z,1.10
2022-12-08T13:37:54.938Z,1.20
2022-12-08T13:40:32.884Z,1.03
2022-12-08T13:43:23.348Z,0.80
2022-12-08T13:53:22.279Z,0.77
2022-12-08T13:57:12.470Z,0.70
2022-12-08T13:59:35.989Z,1.10
2022-12-08T14:02:33.144Z,0.80
2022-12-08T14:05:26.337Z,1.10
2022-12-08T14:07:35.683Z,1.00
2022-12-08T14:10:20.810Z,1.30
2022-12-08T14:12:54.861Z,1.07
2022-12-08T14:15:29.159Z,1.00
2022-12-08T14:17:59.055Z,1.07
2022-12-08T14:20:46.493Z,1.20
2022-12-08T14:23:08.378Z,1.00
2022-12-08T14:25:38.815Z,1.00
2022-12-08T14:28:08.285Z,1.00
2022-12-08T14:30:39.410Z,1.00
2022-12-08T14:33:13.529Z,0.90
2022-12-08T14:35:43.175Z,0.87
2022-12-08T14:38:18.889Z,0.90
2022-12-08T14:41:10.294Z,0.78
2022-12-08T14:43:40.831Z,1.00
2022-12-08T14:46:24.946Z,0.90
2022-12-08T14:48:56.104Z,1.00
2022-12-08T14:51:34.111Z,1.10
2022-12-08T14:54:16.143Z,0.80
2022-12-08T14:56:55.846Z,0.80
2022-12-08T14:59:40.757Z,0.90
2022-12-08T15:02:21.972Z,0.60
2022-12-08T15:05:07.735Z,0.90
2022-12-08T15:07:53.691Z,0.67
2022-12-08T15:10:32.040Z,1.10
2022-12-08T15:13:16.366Z,1.30
2022-12-08T15:15:58.526Z,0.70
2022-12-08T15:18:40.809Z,1.00
2022-12-08T15:21:15.369Z,0.90
2022-12-08T15:23:51.959Z,0.70
2022-12-08T15:26:28.156Z,0.80
2022-12-08T15:28:57.870Z,0.83
2022-12-08T15:31:27.362Z,0.90
2022-12-08T15:33:56.862Z,0.97
2022-12-08T15:36:26.309Z,1.03
2022-12-08T15:38:55.779Z,1.07
2022-12-08T15:41:25.217Z,1.07
2022-12-08T15:43:54.662Z,0.90
2022-12-08T15:46:24.167Z,0.73
2022-12-08T15:48:58.108Z,0.57
2022-12-08T15:51:24.837Z,1.07
2022-12-08T15:53:54.423Z,0.90
2022-12-08T15:56:28.352Z,1.20
2022-12-08T15:58:56.865Z,1.43
2022-12-08T16:01:27.227Z,1.10
2022-12-08T16:04:36.807Z,1.20
2022-12-08T16:09:11.259Z,0.93
2022-12-08T16:12:05.960Z,0.80
2022-12-08T16:15:08.584Z,0.63
2022-12-08T16:16:50.615Z,0.67
2022-12-08T16:19:20.070Z,0.87
2022-12-08T16:22:30.279Z,0.63
2022-12-08T16:24:20.706Z,0.60
2022-12-08T16:29:23.050Z,0.70
2022-12-08T16:31:52.613Z,0.70
2022-12-08T16:34:22.077Z,0.90
2022-12-08T16:36:52.379Z,0.90
2022-12-08T16:39:21.934Z,0.73
2022-12-08T16:42:09.500Z,0.90
2022-12-08T16:44:42.421Z,0.87
2022-12-08T16:47:12.698Z,0.80
2022-12-08T16:49:42.410Z,0.70
2022-12-08T16:52:11.975Z,0.90
2022-12-08T16:54:41.440Z,0.80
2022-12-08T16:57:12.239Z,1.00
2022-12-08T16:59:41.765Z,1.17
2022-12-08T17:02:16.275Z,0.80
2022-12-08T17:04:43.717Z,1.10
2022-12-08T17:07:13.136Z,1.10
2022-12-08T17:09:42.855Z,1.07
2022-12-08T17:12:12.350Z,1.03
2022-12-08T17:14:41.799Z,0.80
2022-12-08T17:17:11.224Z,0.90
2022-12-08T17:19:40.681Z,1.10
2022-12-08T17:22:10.100Z,1.10
2022-12-08T17:24:39.770Z,1.00
2022-12-08T17:27:09.208Z,1.00
2022-12-08T17:29:39.233Z,0.90
2022-12-08T17:32:08.760Z,0.70
2022-12-08T17:34:38.283Z,0.70
2022-12-08T17:37:07.710Z,0.80
2022-12-08T17:39:37.833Z,0.80
2022-12-08T17:42:08.842Z,1.00
2022-12-08T17:44:38.300Z,1.13
2022-12-08T17:47:07.794Z,1.00
2022-12-08T17:49:37.248Z,0.80
2022-12-08T17:52:08.050Z,1.50
2022-12-08T17:54:37.877Z,1.60
2022-12-08T17:57:07.395Z,1.27
2022-12-08T17:59:36.846Z,1.43
2022-12-08T18:02:06.349Z,1.20
2022-12-08T18:04:35.797Z,1.10
2022-12-08T18:07:05.229Z,1.17
2022-12-08T18:09:34.882Z,0.90
2022-12-08T18:12:04.332Z,1.73
2022-12-08T18:14:34.042Z,1.47
2022-12-08T18:17:03.642Z,1.37
2022-12-08T18:19:33.156Z,1.47
2022-12-08T18:22:02.692Z,1.30
2022-12-08T18:24:32.205Z,1.20
2022-12-08T18:27:01.641Z,0.90
2022-12-08T18:29:31.153Z,1.00
2022-12-08T18:32:01.029Z,1.23
2022-12-08T18:34:30.814Z,1.20
2022-12-08T18:37:00.854Z,0.90
2022-12-08T18:39:33.849Z,1.40
2022-12-08T18:42:05.087Z,1.23
2022-12-08T18:44:34.525Z,1.40
2022-12-08T18:47:04.186Z,1.40
2022-12-08T18:49:33.631Z,1.40
2022-12-08T18:52:03.098Z,1.37
2022-12-08T18:54:58.229Z,1.10
2022-12-08T18:57:03.794Z,1.80
2022-12-08T18:59:33.881Z,2.03
2022-12-08T19:02:03.402Z,1.80
2022-12-08T19:04:38.443Z,1.50
2022-12-08T19:07:04.659Z,1.17
2022-12-08T19:09:34.278Z,1.50
2022-12-08T19:12:03.803Z,1.30
2022-12-08T19:14:35.593Z,1.50
2022-12-08T19:17:05.036Z,1.40
2022-12-08T19:19:35.395Z,1.17
2022-12-08T19:22:05.396Z,1.30
2022-12-08T19:24:36.838Z,1.10
2022-12-08T19:27:07.280Z,1.13
2022-12-08T19:29:36.706Z,1.03
2022-12-08T19:32:06.210Z,1.37
2022-12-08T19:34:35.654Z,0.87
2022-12-08T19:37:05.098Z,0.90
2022-12-08T19:39:52.921Z,1.10
2022-12-08T19:42:40.899Z,0.80
2022-12-08T19:45:17.925Z,1.70
2022-12-08T19:47:47.728Z,1.80
2022-12-08T19:50:23.200Z,1.40
2022-12-08T19:52:52.905Z,1.50
2022-12-08T19:55:23.572Z,1.17
2022-12-08T19:57:54.460Z,1.03
2022-12-08T20:00:24.648Z,1.60
2022-12-08T20:02:54.200Z,1.30
2022-12-08T20:05:24.421Z,1.00
2022-12-08T20:07:55.743Z,1.30
2022-12-08T20:10:33.818Z,1.73
2022-12-08T20:13:22.620Z,1.10
2022-12-08T20:15:52.407Z,1.07
2022-12-08T20:18:22.711Z,1.10
2022-12-08T20:20:52.221Z,1.07
2022-12-08T20:23:21.669Z,1.10
2022-12-08T20:25:51.104Z,1.20
2022-12-08T20:28:20.609Z,1.00
2022-12-08T20:30:50.456Z,0.90
2022-12-08T20:33:20.885Z,1.03
2022-12-08T20:36:00.906Z,1.10
2022-12-08T20:38:31.651Z,0.90
2022-12-08T20:41:01.326Z,1.00
2022-12-08T20:43:30.753Z,1.23
2022-12-08T20:46:00.313Z,1.10
2022-12-08T20:48:29.812Z,1.40
2022-12-08T20:51:00.049Z,0.77
2022-12-08T20:53:30.341Z,1.30
2022-12-08T20:55:59.859Z,1.90
2022-12-08T20:58:29.305Z,1.30
2022-12-08T21:00:58.774Z,1.80
2022-12-08T21:03:28.480Z,1.50
2022-12-08T21:05:58.042Z,1.57
2022-12-08T21:08:27.697Z,1.40
2022-12-08T21:10:58.238Z,1.40
2022-12-08T21:13:27.913Z,1.60
2022-12-08T21:15:58.076Z,1.53
2022-12-08T21:18:28.268Z,1.17
2022-12-08T21:21:11.617Z,1.40
2022-12-08T21:23:42.922Z,1.43
2022-12-08T21:26:19.026Z,1.53
2022-12-08T21:28:49.479Z,1.63
2022-12-08T21:31:22.013Z,1.40
2022-12-08T21:33:51.659Z,1.60
2022-12-08T21:36:23.369Z,1.10
2022-12-08T21:38:54.607Z,1.40
2022-12-08T21:41:43.517Z,1.60
2022-12-08T21:44:18.749Z,1.40
2022-12-08T21:46:48.436Z,2.20
2022-12-08T21:49:18.635Z,2.07
2022-12-08T21:51:48.198Z,1.90
2022-12-08T21:54:19.141Z,2.60
2022-12-08T21:56:51.129Z,2.30
2022-12-08T21:59:20.864Z,1.73
2022-12-08T22:01:50.508Z,1.70
2022-12-08T22:04:22.103Z,1.70
2022-12-08T22:06:52.344Z,1.80
2022-12-08T22:09:22.185Z,1.70
2022-12-08T22:11:51.813Z,1.50
2022-12-08T22:14:21.461Z,1.47
2022-12-08T22:16:51.109Z,1.47
2022-12-08T22:19:20.648Z,1.37
2022-12-08T22:21:50.281Z,1.27
2022-12-08T22:24:19.844Z,1.50
2022-12-08T22:26:49.577Z,1.43
2022-12-08T22:29:19.251Z,1.23
2022-12-08T22:31:48.866Z,1.40
2022-12-08T22:34:18.588Z,1.50
2022-12-08T22:36:49.131Z,1.53
2022-12-08T22:39:18.909Z,1.70
2022-12-08T22:41:48.509Z,1.70
2022-12-08T22:44:18.060Z,1.80
2022-12-08T22:46:48.003Z,1.73
2022-12-08T22:49:17.605Z,1.90
2022-12-08T22:51:47.337Z,1.50
2022-12-08T22:54:16.821Z,1.50
2022-12-08T22:56:46.347Z,1.40
2022-12-08T22:59:15.787Z,1.30
2022-12-08T23:01:45.388Z,1.70
2022-12-08T23:04:17.977Z,1.80
2022-12-08T23:06:45.985Z,1.87
2022-12-08T23:09:15.610Z,1.60
2022-12-08T23:11:45.461Z,1.70
2022-12-08T23:14:14.957Z,1.60
2022-12-08T23:16:45.073Z,1.90
2022-12-08T23:19:14.583Z,1.83
2022-12-08T23:21:44.181Z,1.57
2022-12-08T23:24:13.779Z,1.47
2022-12-08T23:26:43.415Z,1.80
2022-12-08T23:29:12.862Z,1.30
2022-12-08T23:31:42.628Z,1.47
2022-12-08T23:34:13.002Z,1.47
2022-12-08T23:36:42.883Z,1.63
2022-12-08T23:39:13.242Z,1.40
2022-12-08T23:41:42.753Z,1.80
2022-12-08T23:44:12.409Z,1.70
2022-12-08T23:46:42.214Z,1.83
2022-12-08T23:49:12.589Z,1.70
2022-12-08T23:51:42.040Z,1.90
2022-12-08T23:54:11.627Z,1.67
2022-12-08T23:56:42.254Z,1.70
2022-12-08T23:59:12.061Z,1.67
